Time;durP1;ratioP1;P1;durP2;ratioP2;P2;SDS_P1;SDS_P2;PMS_P1;PMS_P2;Temp;Humidity;BMP_temperature;BMP_pressure;BME280_temperature;BME280_humidity;BME280_pressure;Samples;Min_cycle;Max_cycle;Signal;HPM_P1;HPM_P2
2021/10/09 00:01:52;;;;;;;26.12;13.62;;;;;;;3.36;80.78;100476.75;2167479;81;21041;-87
2021/10/09 00:04:53;;;;;;;30.23;16.12;;;;;;;3.36;80.77;100474.63;2163745;82;20969;-87
2021/10/09 00:07:54;;;;;;;30.90;15.10;;;;;;;3.35;80.87;100470.38;2163580;82;21016;-87
2021/10/09 00:10:55;;;;;;;27.50;15.60;;;;;;;3.29;80.71;100473.32;2163759;82;20981;-87
2021/10/09 00:13:56;;;;;;;26.30;15.28;;;;;;;3.25;80.98;100475.27;2142190;82;21120;-87
2021/10/09 00:16:57;;;;;;;24.90;13.98;;;;;;;3.25;80.95;100470.55;2163457;82;21548;-87
2021/10/09 00:19:58;;;;;;;28.85;15.90;;;;;;;3.22;81.22;100474.16;2163191;82;21096;-88
2021/10/09 00:22:58;;;;;;;26.12;15.93;;;;;;;3.19;81.18;100470.90;2163514;82;21045;-86
2021/10/09 00:25:59;;;;;;;27.75;16.32;;;;;;;3.18;81.38;100466.19;2163619;82;21065;-86
2021/10/09 00:29:00;;;;;;;32.67;15.85;;;;;;;3.14;81.38;100468.59;2163710;82;21556;-87
2021/10/09 00:32:01;;;;;;;37.98;20.05;;;;;;;3.09;81.42;100463.67;2163785;82;20985;-85
2021/10/09 00:35:01;;;;;;;32.73;17.60;;;;;;;3.01;81.67;100459.40;2163792;82;20998;-89
2021/10/09 00:38:02;;;;;;;24.27;14.47;;;;;;;2.99;82.05;100463.01;2163716;82;21096;-89
2021/10/09 00:41:03;;;;;;;31.35;15.63;;;;;;;2.94;82.32;100465.05;2163728;82;21067;-89
2021/10/09 00:44:04;;;;;;;29.65;15.75;;;;;;;2.89;82.58;100459.28;2163507;82;20938;-89
2021/10/09 00:47:05;;;;;;;27.05;14.87;;;;;;;2.87;82.73;100455.50;2163285;82;21103;-88
2021/10/09 00:50:05;;;;;;;34.35;17.62;;;;;;;2.85;82.81;100458.18;2163566;82;20989;-88
2021/10/09 00:53:06;;;;;;;42.38;20.37;;;;;;;2.84;82.95;100452.64;2163764;82;20989;-88
2021/10/09 00:56:07;;;;;;;30.65;15.68;;;;;;;2.84;82.95;100452.64;2163542;82;21046;-88
2021/10/09 00:59:08;;;;;;;26.57;14.45;;;;;;;2.84;83.15;100455.22;2163285;82;20962;-89
2021/10/09 01:02:08;;;;;;;32.42;15.72;;;;;;;2.85;83.45;100454.30;2163069;81;21140;-88
2021/10/09 01:05:09;;;;;;;30.35;16.27;;;;;;;2.84;83.81;100458.27;2163730;82;20930;-88
2021/10/09 01:08:10;;;;;;;33.70;15.93;;;;;;;2.81;83.91;100453.25;2163633;82;21053;-89
2021/10/09 01:11:11;;;;;;;25.35;14.07;;;;;;;2.77;83.98;100456.48;2163699;82;21096;-87
2021/10/09 01:14:12;;;;;;;24.02;13.70;;;;;;;2.71;84.00;100463.30;2163720;82;21000;-88
2021/10/09 01:17:12;;;;;;;25.00;11.65;;;;;;;2.63;84.52;100460.77;2163735;82;21516;-87
2021/10/09 01:20:13;;;;;;;25.17;13.43;;;;;;;2.55;84.88;100456.85;2163460;82;21030;-88
2021/10/09 01:23:14;;;;;;;24.23;13.72;;;;;;;2.50;84.79;100460.17;2163574;82;21041;-87
2021/10/09 01:26:15;;;;;;;26.00;13.55;;;;;;;2.48;84.93;100454.26;2163679;82;21069;-87
2021/10/09 01:29:16;;;;;;;27.98;13.58;;;;;;;2.53;85.06;100453.98;2163725;82;21441;-89
2021/10/09 01:32:16;;;;;;;23.20;13.50;;;;;;;2.53;85.06;100453.98;2163754;82;21073;-88
2021/10/09 01:35:17;;;;;;;25.00;14.05;;;;;;;2.56;85.36;100446.05;2163660;82;21528;-87
2021/10/09 01:38:21;;;;;;;30.72;14.33;;;;;;;2.61;85.35;100445.34;2163722;82;21053;-87
2021/10/09 01:41:22;;;;;;;28.27;13.80;;;;;;;2.64;85.47;100446.91;2164169;82;21065;-87
2021/10/09 01:44:22;;;;;;;26.12;13.48;;;;;;;2.62;85.39;100447.00;2163766;82;21052;-86
2021/10/09 01:47:23;;;;;;;24.90;13.98;;;;;;;2.60;85.53;100443.67;2163511;82;20989;-85
2021/10/09 01:50:24;;;;;;;25.77;14.73;;;;;;;2.55;85.68;100443.09;2163423;82;21073;-88
2021/10/09 01:53:25;;;;;;;27.37;15.30;;;;;;;2.50;85.79;100436.90;2163674;82;21061;-87
2021/10/09 01:56:26;;;;;;;26.95;15.08;;;;;;;2.46;85.76;100435.84;2163649;82;21445;-87
2021/10/09 01:59:26;;;;;;;23.60;14.20;;;;;;;2.42;86.03;100440.37;2163425;82;21055;-86
2021/10/09 02:02:27;;;;;;;25.23;13.85;;;;;;;2.43;86.47;100441.20;2163208;81;21017;-86
2021/10/09 02:05:28;;;;;;;26.17;14.85;;;;;;;2.37;86.36;100439.78;2163452;82;21122;-87
2021/10/09 02:08:29;;;;;;;27.50;14.23;;;;;;;2.39;86.71;100441.02;2162928;82;21065;-86
2021/10/09 02:11:40;;;;;;;24.60;13.43;;;;;;;2.42;86.88;100444.71;2163664;82;20981;-86
2021/10/09 02:14:51;;;;;;;26.35;15.48;;;;;;;2.39;86.91;100445.72;2163359;82;21535;-86
2021/10/09 02:27:10;;;;;;;23.83;11.35;;;;;;;2.23;87.61;100447.02;2163657;82;20992;-88
2021/10/09 02:30:10;;;;;;;30.48;14.65;;;;;;;2.20;87.88;100442.49;2163612;82;21075;-87
2021/10/09 02:33:11;;;;;;;24.60;13.90;;;;;;;2.18;88.20;100445.59;2163850;82;21022;-89
2021/10/09 02:36:12;;;;;;;22.65;13.55;;;;;;;2.18;88.50;100446.89;2163667;82;21080;-88
2021/10/09 02:39:13;;;;;;;22.85;12.40;;;;;;;2.19;88.89;100452.42;2163692;82;21028;-88
2021/10/09 02:42:14;;;;;;;25.10;14.13;;;;;;;2.17;89.08;100451.23;2163520;82;21038;-88
2021/10/09 02:45:15;;;;;;;23.30;12.95;;;;;;;2.16;89.08;100458.61;2163674;82;21564;-86
2021/10/09 02:48:16;;;;;;;26.27;13.65;;;;;;;2.10;89.25;100456.34;2163550;82;20970;-88
2021/10/09 02:51:17;;;;;;;22.02;11.60;;;;;;;2.03;89.67;100449.87;2163642;82;21044;-88
2021/10/09 02:54:18;;;;;;;23.02;12.18;;;;;;;1.94;89.65;100458.11;2163537;82;20962;-89
2021/10/09 02:57:18;;;;;;;18.48;10.48;;;;;;;1.89;89.73;100454.93;2163538;82;21080;-89
2021/10/09 03:00:20;;;;;;;28.75;14.58;;;;;;;1.84;90.07;100456.94;2163243;82;20970;-87
2021/10/09 03:03:20;;;;;;;38.90;19.37;;;;;;;1.81;90.24;100459.20;2173645;81;21305;-86
2021/10/09 03:06:21;;;;;;;32.13;16.25;;;;;;;1.80;90.12;100458.83;2180206;82;21099;-87
2021/10/09 03:09:22;;;;;;;30.77;14.70;;;;;;;1.81;90.32;100447.58;2180093;82;20969;-88
2021/10/09 03:12:23;;;;;;;26.70;14.47;;;;;;;1.83;90.38;100462.56;2180736;81;21012;-87
2021/10/09 03:15:24;;;;;;;25.92;13.35;;;;;;;1.84;90.38;100460.81;2180637;81;20973;-85
2021/10/09 03:18:24;;;;;;;25.20;14.18;;;;;;;1.80;90.51;100456.70;2180533;81;20980;-86
2021/10/09 03:21:28;;;;;;;31.15;14.75;;;;;;;1.75;90.37;100463.89;2180717;81;21017;-85
2021/10/09 03:24:28;;;;;;;21.20;13.25;;;;;;;1.69;90.66;100464.57;2180434;82;21032;-86
2021/10/09 03:27:29;;;;;;;26.07;14.63;;;;;;;1.66;90.87;100463.91;2180952;81;21020;-85
2021/10/09 03:30:29;;;;;;;31.05;16.07;;;;;;;1.62;91.19;100463.22;2180691;82;21029;-85
2021/10/09 03:33:30;;;;;;;23.57;13.68;;;;;;;1.62;91.12;100459.34;2180880;82;21079;-85
2021/10/09 03:36:31;;;;;;;24.02;14.35;;;;;;;1.60;91.37;100462.47;2180774;81;21037;-87
2021/10/09 03:39:33;;;;;;;23.07;13.98;;;;;;;1.59;91.59;100457.39;2180808;81;21032;-87
2021/10/09 03:42:43;;;;;;;23.62;15.00;;;;;;;1.58;91.64;100453.98;2180701;82;21060;-86
2021/10/09 03:49:18;;;;;;;27.40;17.17;;;;;;;1.65;92.38;100452.75;2180563;82;21651;-87
2021/10/09 03:55:23;;;;;;;41.88;20.60;;;;;;;1.64;91.77;100457.97;2180790;82;21024;-86
2021/10/09 03:58:23;;;;;;;35.05;21.12;;;;;;;1.62;91.39;100452.89;2180789;81;21033;-88
2021/10/09 04:01:24;;;;;;;25.90;16.65;;;;;;;1.58;91.62;100448.81;2180931;81;21538;-87
2021/10/09 04:04:27;;;;;;;27.98;15.98;;;;;;;1.51;91.96;100451.79;2180623;81;21044;-86
2021/10/09 04:07:27;;;;;;;24.65;17.40;;;;;;;1.47;92.23;100454.17;2180733;81;21570;-86
2021/10/09 04:10:28;;;;;;;32.17;19.05;;;;;;;1.42;92.63;100459.55;2180719;81;21009;-87
2021/10/09 04:13:29;;;;;;;65.92;30.10;;;;;;;1.37;93.00;100452.48;2180868;81;21035;-86
2021/10/09 04:16:30;;;;;;;57.23;26.15;;;;;;;1.36;93.13;100454.69;2180862;81;21016;-87
2021/10/09 04:19:31;;;;;;;50.08;24.98;;;;;;;1.36;93.08;100453.41;2180837;82;21020;-85
2021/10/09 04:22:31;;;;;;;42.93;21.87;;;;;;;1.35;92.72;100461.60;2180822;81;21029;-85
2021/10/09 04:25:32;;;;;;;35.83;17.77;;;;;;;1.33;92.37;100460.02;2180859;81;21515;-87
2021/10/09 04:28:34;;;;;;;39.50;18.70;;;;;;;1.23;92.82;100455.79;2180762;81;21071;-87
2021/10/09 04:31:35;;;;;;;34.85;17.80;;;;;;;1.17;92.62;100460.42;2180609;82;21080;-88
2021/10/09 04:34:36;;;;;;;30.45;17.30;;;;;;;1.16;93.19;100467.33;2180278;82;20965;-86
2021/10/09 04:37:37;;;;;;;36.42;20.20;;;;;;;1.17;93.78;100463.83;2180276;81;21057;-86
2021/10/09 04:40:38;;;;;;;48.83;23.35;;;;;;;1.13;93.62;100467.48;2180625;81;20993;-87
2021/10/09 04:43:38;;;;;;;71.85;33.95;;;;;;;1.09;93.25;100469.83;2180854;81;21080;-86
2021/10/09 04:46:39;;;;;;;63.75;32.00;;;;;;;1.06;93.62;100472.11;2180541;81;20993;-87
2021/10/09 04:49:40;;;;;;;48.75;29.32;;;;;;;0.99;93.71;100477.19;2180929;82;21567;-88
2021/10/09 04:52:41;;;;;;;38.02;22.73;;;;;;;0.99;93.71;100477.19;2180651;81;21047;-86
2021/10/09 04:55:41;;;;;;;34.67;22.85;;;;;;;1.06;94.58;100483.72;2182966;81;21462;-86
2021/10/09 04:58:42;;;;;;;42.38;21.10;;;;;;;1.09;95.40;100489.17;2201259;80;21009;-85
2021/10/09 05:01:43;;;;;;;36.38;18.02;;;;;;;1.07;95.45;100493.12;2195873;80;21012;-86
2021/10/09 05:04:44;;;;;;;39.38;19.70;;;;;;;0.99;95.46;100496.53;2125030;83;20979;-87
2021/10/09 05:07:45;;;;;;;36.65;18.20;;;;;;;0.88;95.58;100499.27;2163592;82;21080;-86
2021/10/09 05:10:46;;;;;;;31.40;17.40;;;;;;;0.77;95.56;100493.34;2163420;82;21006;-86
2021/10/09 05:13:47;;;;;;;36.85;19.52;;;;;;;0.72;95.82;100499.17;2170283;82;21485;-86
2021/10/09 05:16:47;;;;;;;39.25;20.85;;;;;;;0.69;95.81;100498.88;2170775;82;20971;-86
2021/10/09 05:19:48;;;;;;;38.33;22.55;;;;;;;0.72;95.85;100498.72;2171224;81;21597;-87
2021/10/09 05:22:49;;;;;;;35.65;19.80;;;;;;;0.78;96.00;100501.46;2170918;81;20994;-87
2021/10/09 05:25:50;;;;;;;30.62;17.67;;;;;;;0.87;95.93;100501.02;2171142;82;21568;-89
2021/10/09 05:28:52;;;;;;;30.77;18.82;;;;;;;0.89;95.33;100501.77;2170989;81;21033;-86
2021/10/09 05:32:02;;;;;;;35.13;23.47;;;;;;;0.86;95.59;100504.52;2171037;81;21549;-88
2021/10/09 05:34:55;;;;;;;39.88;22.98;;;;;;;0.84;95.59;100503.76;2170425;81;21065;-90
2021/10/09 05:37:56;;;;;;;41.85;26.33;;;;;;;0.89;95.75;100497.07;2160476;82;20998;-91
2021/10/09 05:40:57;;;;;;;47.88;28.47;;;;;;;0.99;95.93;100493.96;2171320;81;20990;-86
2021/10/09 05:43:58;;;;;;;57.40;32.90;;;;;;;1.11;96.13;100493.38;2171142;81;21013;-89
2021/10/09 05:46:59;;;;;;;66.92;34.78;;;;;;;1.25;96.44;100496.54;2171174;81;21069;-87
2021/10/09 05:50:03;;;;;;;54.70;30.27;;;;;;;1.40;96.17;100496.23;2170775;81;20963;-88
2021/10/09 07:00:48;;;;;;;26.90;14.63;;;;;;;4.82;87.97;100531.66;1936084;92;21159;-86
2021/10/09 07:03:49;;;;;;;20.23;11.78;;;;;;;5.04;87.70;100540.20;1894595;93;21750;-85
2021/10/09 07:06:51;;;;;;;22.48;12.40;;;;;;;5.23;85.82;100541.59;1939410;91;21067;-86
2021/10/09 07:09:52;;;;;;;15.63;11.28;;;;;;;5.37;84.58;100546.69;1962369;91;21040;-86
2021/10/09 07:12:52;;;;;;;18.98;11.50;;;;;;;5.53;83.78;100536.95;2011886;88;21129;-85
2021/10/09 07:15:53;;;;;;;17.37;10.08;;;;;;;5.68;83.10;100539.82;2025608;88;21584;-86
2021/10/09 07:18:54;;;;;;;18.87;11.80;;;;;;;5.81;79.31;100545.01;2025708;88;21086;-86
2021/10/09 07:21:55;;;;;;;19.90;11.28;;;;;;;5.90;80.52;100545.70;2025728;88;21094;-85
2021/10/09 07:24:56;;;;;;;19.80;11.78;;;;;;;6.04;78.09;100549.98;2025634;88;21121;-86
2021/10/09 07:27:57;;;;;;;17.20;11.00;;;;;;;6.12;78.68;100537.25;2025949;88;21045;-85
2021/10/09 07:30:58;;;;;;;18.15;10.13;;;;;;;6.28;77.78;100532.64;2087877;82;20974;-86
2021/10/09 07:33:58;;;;;;;15.13;9.28;;;;;;;6.49;77.01;100541.16;2180988;82;21002;-86
2021/10/09 07:36:59;;;;;;;16.95;8.80;;;;;;;6.68;72.16;100536.80;2180817;81;21023;-86
2021/10/09 07:40:00;;;;;;;12.10;8.93;;;;;;;6.84;74.69;100539.47;2180993;81;21603;-85
2021/10/09 07:43:01;;;;;;;14.83;9.20;;;;;;;7.03;71.35;100550.67;2180931;81;21025;-87
2021/10/09 07:46:02;;;;;;;12.68;8.05;;;;;;;7.18;69.27;100543.52;2181063;81;21005;-86
2021/10/09 07:49:02;;;;;;;9.80;7.67;;;;;;;7.34;70.08;100549.27;2180992;82;20974;-86
2021/10/09 07:52:03;;;;;;;15.95;10.23;;;;;;;7.45;66.14;100554.14;2180960;81;20962;-86
2021/10/09 07:55:04;;;;;;;12.47;8.68;;;;;;;7.57;68.46;100555.82;2181122;81;21540;-87
2021/10/09 07:58:05;;;;;;;11.93;7.80;;;;;;;7.68;68.95;100561.05;2180928;81;21048;-86
2021/10/09 08:01:05;;;;;;;14.13;9.08;;;;;;;7.83;66.25;100557.28;2180939;81;20986;-88
2021/10/09 08:04:09;;;;;;;13.93;7.95;;;;;;;7.91;64.24;100561.92;2176243;81;21033;-86
2021/10/09 08:07:09;;;;;;;12.95;8.95;;;;;;;7.98;63.45;100562.64;2171138;81;21057;-87
2021/10/09 08:10:10;;;;;;;12.10;7.50;;;;;;;8.00;61.34;100565.13;2170941;82;21454;-87
2021/10/09 08:13:11;;;;;;;13.68;8.88;;;;;;;8.05;61.68;100563.48;2171287;81;21032;-84
2021/10/09 08:16:11;;;;;;;15.15;8.28;;;;;;;8.10;60.36;100558.25;2170534;81;20935;-84
2021/10/09 08:19:12;;;;;;;14.60;8.73;;;;;;;8.16;60.68;100563.00;2168252;82;21310;-83
2021/10/09 08:22:13;;;;;;;16.27;10.48;;;;;;;8.15;59.03;100564.43;2168836;82;21462;-85
2021/10/09 08:41:25;;;;;;;16.60;9.93;;;;;;;8.31;57.04;100566.66;2169219;82;21014;-85
2021/10/09 08:44:26;;;;;;;13.88;9.03;;;;;;;8.38;57.85;100556.95;2169259;81;20971;-86
2021/10/09 08:47:27;;;;;;;15.00;9.00;;;;;;;8.51;57.18;100552.92;2169098;81;21022;-85
2021/10/09 08:50:31;;;;;;;15.13;9.13;;;;;;;8.60;56.31;100553.49;2169128;81;21506;-85
2021/10/09 08:53:32;;;;;;;12.68;7.97;;;;;;;8.67;55.59;100550.72;2168935;82;21002;-86
2021/10/09 08:56:33;;;;;;;12.15;8.10;;;;;;;8.76;54.87;100541.33;2168803;81;21022;-86
2021/10/09 08:59:34;;;;;;;12.20;7.50;;;;;;;8.86;53.89;100546.63;2168937;81;20986;-86
2021/10/09 09:02:42;;;;;;;15.25;8.10;;;;;;;8.96;54.88;100544.93;2169856;81;21009;-87
2021/10/09 09:05:58;;;;;;;10.08;7.08;;;;;;;9.05;54.87;100533.73;2170654;81;21090;-89
2021/10/09 09:09:06;;;;;;;21.07;11.85;;;;;;;9.12;52.44;100544.04;2169898;82;21026;-88
2021/10/09 09:32:04;;;;;;;7.17;5.17;;;;;;;9.81;50.31;100550.07;2170070;81;21053;-86
2021/10/09 09:41:31;;;;;;;8.53;6.30;;;;;;;10.10;44.52;100535.32;2171153;82;21088;-86
2021/10/09 09:44:32;;;;;;;11.03;4.22;;;;;;;10.23;44.92;100551.64;2172102;82;21550;-85
2021/10/09 09:47:33;;;;;;;9.60;5.37;;;;;;;10.27;44.18;100527.84;2172394;81;21496;-83
2021/10/09 09:50:35;;;;;;;11.95;4.80;;;;;;;10.27;43.32;100551.40;2171102;82;21109;-84
2021/10/09 09:53:36;;;;;;;6.60;4.47;;;;;;;10.35;44.85;100545.02;2171624;82;20958;-87
2021/10/09 09:56:37;;;;;;;4.65;3.62;;;;;;;10.42;42.53;100536.50;2170816;82;21032;-83
2021/10/09 09:59:38;;;;;;;5.87;3.70;;;;;;;10.45;41.88;100540.63;2170999;81;20952;-84
2021/10/09 10:02:38;;;;;;;6.55;3.80;;;;;;;10.49;41.80;100549.38;2171243;82;21088;-84
2021/10/09 10:05:39;;;;;;;10.15;4.60;;;;;;;10.57;41.40;100552.64;2170642;80;21046;-82
2021/10/09 10:08:43;;;;;;;8.98;4.65;;;;;;;10.60;41.48;100539.75;2170987;82;21020;-83
2021/10/09 10:11:44;;;;;;;7.90;5.30;;;;;;;10.66;41.30;100528.73;2170934;82;21018;-83
2021/10/09 10:14:45;;;;;;;9.83;4.58;;;;;;;10.73;41.06;100527.23;2171095;81;21525;-83
2021/10/09 10:17:46;;;;;;;3.92;3.17;;;;;;;10.88;41.63;100521.09;2170998;81;20986;-80
2021/10/09 10:20:47;;;;;;;5.00;3.80;;;;;;;10.87;40.65;100515.51;2171159;82;21013;-79
2021/10/09 10:23:47;;;;;;;6.42;4.03;;;;;;;10.85;39.37;100516.13;2170504;81;20994;-80
2021/10/09 10:26:51;;;;;;;9.45;4.60;;;;;;;10.93;39.27;100522.83;2170534;82;21097;-80
2021/10/09 10:30:11;;;;;;;7.83;4.05;;;;;;;10.93;39.36;100523.66;2160987;81;21041;-82
2021/10/09 10:33:11;;;;;;;5.65;3.83;;;;;;;10.93;39.59;100513.17;2080611;85;21041;-81
2021/10/09 10:36:11;;;;;;;9.08;4.28;;;;;;;10.99;40.21;100504.77;2081621;85;21071;-82
2021/10/09 10:39:12;;;;;;;3.87;3.42;;;;;;;11.05;39.70;100509.92;2081507;85;21069;-83
2021/10/09 10:42:13;;;;;;;4.40;3.70;;;;;;;11.08;38.05;100520.97;2081508;85;21089;-84
2021/10/09 10:45:26;;;;;;;3.72;3.40;;;;;;;11.06;38.64;100521.60;2081729;85;21572;-84
2021/10/09 10:48:17;;;;;;;8.50;4.12;;;;;;;10.98;38.55;100518.84;2079151;85;21140;-84
2021/10/09 10:51:18;;;;;;;8.88;5.83;;;;;;;10.99;39.64;100510.49;2081703;85;21065;-84
2021/10/09 10:57:28;;;;;;;6.55;4.45;;;;;;;10.99;38.54;100508.70;2081742;85;21144;-84
2021/10/09 11:00:29;;;;;;;6.03;3.72;;;;;;;11.02;39.81;100511.03;2081606;85;21003;-84
2021/10/09 11:03:30;;;;;;;5.72;4.12;;;;;;;11.03;38.61;100510.06;2081531;85;20986;-84
2021/10/09 11:06:31;;;;;;;6.25;3.92;;;;;;;11.04;39.63;100498.61;2078089;84;21125;-84
2021/10/09 11:09:36;;;;;;;4.37;3.95;;;;;;;11.05;39.18;100492.39;2055735;86;21085;-84
2021/10/09 11:12:49;;;;;;;;;;;;;;;;;;;;;
2021/10/09 11:15:57;;;;;;;;;;;;;;;;;;;;;
2021/10/09 11:22:09;;;;;;;;;;;;;;;;;;;;;
2021/10/09 11:24:55;;;;;;;6.35;4.62;;;;;;;11.15;40.00;100474.03;1871159;94;21686;-85
2021/10/09 11:27:56;;;;;;;10.18;4.72;;;;;;;11.21;41.12;100477.90;1852897;95;21081;-85
2021/10/09 11:31:06;;;;;;;7.40;5.03;;;;;;;11.21;40.86;100485.28;1945181;91;21073;-85
2021/10/09 11:34:00;;;;;;;7.35;5.45;;;;;;;11.16;41.81;100471.78;1951740;91;21209;-85
2021/10/09 11:37:02;;;;;;;8.05;5.22;;;;;;;11.21;42.39;100467.41;1952698;91;21160;-84
2021/10/09 11:40:08;;;;;;;6.42;4.80;;;;;;;11.19;42.04;100473.28;1952526;91;21149;-85
2021/10/09 11:46:32;;;;;;;9.88;5.65;;;;;;;11.19;42.80;100466.25;1974965;88;21170;-85
2021/10/09 11:56:07;;;;;;;8.55;5.87;;;;;;;11.18;42.85;100472.95;1994636;88;21097;-86
2021/10/09 11:59:11;;;;;;;11.53;6.08;;;;;;;11.13;42.81;100461.55;2017202;88;21093;-85
2021/10/09 12:02:12;;;;;;;8.38;5.78;;;;;;;11.11;43.17;100463.50;2069802;84;21183;-86
2021/10/09 12:05:13;;;;;;;6.20;4.85;;;;;;;11.11;42.98;100456.45;2119531;83;21132;-86
2021/10/09 12:08:24;;;;;;;9.18;5.87;;;;;;;11.10;43.07;100464.47;2119673;84;21038;-86
2021/10/09 12:11:22;;;;;;;8.00;4.80;;;;;;;11.13;42.96;100461.55;2026178;88;21536;-86
2021/10/09 12:14:22;;;;;;;7.17;4.67;;;;;;;11.13;42.58;100462.04;2119528;84;21045;-87
2021/10/09 12:17:23;;;;;;;7.83;4.92;;;;;;;11.14;41.82;100457.14;2129609;82;20973;-85
2021/10/09 12:20:26;;;;;;;7.25;4.78;;;;;;;11.17;41.87;100452.94;2180764;81;21022;-86
2021/10/09 12:23:29;;;;;;;6.78;5.12;;;;;;;11.18;41.90;100461.15;2181142;81;21057;-85
2021/10/09 12:26:29;;;;;;;4.33;3.85;;;;;;;11.16;42.61;100445.56;2181148;82;21069;-86
2021/10/09 12:29:33;;;;;;;8.05;4.83;;;;;;;11.17;41.44;100438.04;2181186;81;20997;-86
2021/10/09 12:32:33;;;;;;;6.37;5.00;;;;;;;11.17;41.28;100449.02;2180692;81;21024;-86
2021/10/09 12:35:34;;;;;;;5.55;4.55;;;;;;;11.17;42.04;100435.41;2180466;81;20986;-86
2021/10/09 12:38:35;;;;;;;4.42;4.03;;;;;;;11.21;40.67;100451.20;2180671;81;21078;-86
2021/10/09 12:41:36;;;;;;;8.28;4.75;;;;;;;11.23;40.55;100435.31;2180867;81;21029;-87
2021/10/09 12:44:37;;;;;;;4.72;3.83;;;;;;;11.24;41.43;100439.09;2180529;81;21572;-87
2021/10/09 12:47:38;;;;;;;6.70;4.25;;;;;;;11.26;41.33;100431.94;2181076;81;21021;-87
2021/10/09 12:50:39;;;;;;;4.12;3.72;;;;;;;11.28;40.21;100431.31;2180815;81;21096;-88
2021/10/09 12:53:39;;;;;;;5.30;4.28;;;;;;;11.31;39.02;100438.88;2181146;81;20926;-87
2021/10/09 12:56:41;;;;;;;4.83;4.25;;;;;;;11.32;39.32;100428.73;2180980;82;21016;-86
2021/10/09 12:59:42;;;;;;;4.37;3.72;;;;;;;11.35;39.87;100427.16;2181375;81;21064;-86
2021/10/09 13:02:43;;;;;;;6.05;3.67;;;;;;;11.34;40.68;100417.64;2180952;82;21047;-86
2021/10/09 13:05:44;;;;;;;7.50;4.37;;;;;;;11.39;40.54;100425.06;2184496;81;21501;-86
2021/10/09 13:08:44;;;;;;;7.83;4.35;;;;;;;11.39;40.88;100423.75;2188395;80;21528;-86
2021/10/09 13:11:56;;;;;;;6.62;5.42;;;;;;;11.38;40.35;100398.01;2227163;80;21008;-89
2021/10/09 13:14:50;;;;;;;4.85;4.03;;;;;;;11.36;40.08;100415.69;2196659;80;21005;-87
2021/10/09 13:17:51;;;;;;;5.85;4.28;;;;;;;11.38;40.69;100426.86;2171103;81;20978;-87
2021/10/09 13:20:52;;;;;;;5.22;3.72;;;;;;;11.34;40.59;100415.50;2186853;81;21089;-85
2021/10/09 13:23:53;;;;;;;4.72;4.22;;;;;;;11.36;41.07;100409.63;2183976;81;21550;-87
2021/10/09 13:26:53;;;;;;;7.35;4.22;;;;;;;11.37;41.27;100409.48;2183956;81;20976;-86
2021/10/09 13:29:54;;;;;;;4.97;3.92;;;;;;;11.36;41.29;100414.38;2187594;81;20985;-88
2021/10/09 13:32:54;;;;;;;4.87;4.37;;;;;;;11.34;41.07;100408.95;2187702;81;21088;-87
2021/10/09 13:35:55;;;;;;;6.92;4.20;;;;;;;11.34;40.95;100401.08;2186654;81;21025;-87
2021/10/09 13:38:56;;;;;;;4.50;4.10;;;;;;;11.31;41.22;100406.10;2187163;81;20992;-85
2021/10/09 13:41:58;;;;;;;6.47;4.45;;;;;;;11.31;41.37;100396.92;2184041;81;21440;-86
2021/10/09 13:44:59;;;;;;;8.25;5.37;;;;;;;11.31;41.59;100406.10;2188445;80;21000;-86
2021/10/09 13:48:00;;;;;;;7.95;5.50;;;;;;;11.29;40.08;100399.36;2186255;80;20923;-86
2021/10/09 13:51:00;;;;;;;6.12;4.83;;;;;;;11.27;40.40;100409.17;2186219;81;20950;-85
2021/10/09 13:54:01;;;;;;;5.33;3.70;;;;;;;11.23;40.74;100403.85;2186344;81;20947;-83
2021/10/09 13:57:04;;;;;;;7.08;4.78;;;;;;;11.20;41.19;100393.66;2185207;81;20982;-86
2021/10/09 14:00:05;;;;;;;8.60;5.25;;;;;;;11.21;41.75;100392.69;2185675;81;21054;-86
2021/10/09 14:03:06;;;;;;;8.83;5.47;;;;;;;11.18;41.03;100395.12;2185742;81;21046;-87
2021/10/09 14:06:06;;;;;;;4.47;3.85;;;;;;;11.09;40.99;100385.00;2192135;80;21061;-87
2021/10/09 14:09:07;;;;;;;6.70;4.45;;;;;;;11.09;40.99;100385.00;2184982;81;21517;-85
2021/10/09 14:12:08;;;;;;;7.70;4.40;;;;;;;11.13;41.30;100386.02;2165365;82;20915;-86
2021/10/09 14:15:08;;;;;;;5.85;4.28;;;;;;;11.11;41.65;100395.34;2172677;81;21001;-86
2021/10/09 14:18:10;;;;;;;4.97;4.28;;;;;;;11.09;40.82;100389.42;2165305;82;21021;-84
2021/10/09 14:21:11;;;;;;;5.10;4.12;;;;;;;11.06;40.68;100396.23;2163305;82;21100;-85
2021/10/09 14:24:11;;;;;;;5.40;4.05;;;;;;;11.04;40.62;100392.45;2162371;82;21477;-86
2021/10/09 14:27:12;;;;;;;4.33;3.62;;;;;;;11.02;40.66;100381.77;2163286;82;20997;-89
2021/10/09 14:30:13;;;;;;;9.68;4.28;;;;;;;10.99;40.50;100393.37;2163566;82;20989;-87
2021/10/09 14:33:14;;;;;;;8.25;5.78;;;;;;;10.96;40.71;100387.56;2163524;82;21144;-87
2021/10/09 14:36:15;;;;;;;6.37;5.28;;;;;;;10.92;41.05;100383.11;2163286;82;21065;-87
2021/10/09 14:39:16;;;;;;;5.03;4.35;;;;;;;10.91;41.46;100380.63;2163911;82;20934;-89
2021/10/09 14:42:21;;;;;;;6.83;4.83;;;;;;;10.88;41.31;100377.81;2162939;82;21044;-89
2021/10/09 14:45:24;;;;;;;10.58;5.25;;;;;;;10.86;41.75;100380.21;2163061;82;21081;-89
2021/10/09 14:48:32;;;;;;;4.08;3.70;;;;;;;10.81;41.90;100374.92;2155284;82;21069;-87
2021/10/09 15:18:01;;;;;;;6.65;4.35;;;;;;;10.33;43.83;100385.89;2135441;83;21510;-88
2021/10/09 15:20:47;;;;;;;10.98;4.87;;;;;;;10.26;44.15;100392.19;2133358;83;21017;-89
2021/10/09 15:23:48;;;;;;;7.70;4.97;;;;;;;10.19;44.18;100384.49;2135003;83;21045;-86
2021/10/09 15:26:49;;;;;;;6.65;5.08;;;;;;;10.11;44.43;100384.34;2134992;82;21583;-84
2021/10/09 15:29:50;;;;;;;6.87;4.55;;;;;;;10.04;44.69;100383.22;2134376;83;20982;-84
2021/10/09 15:32:51;;;;;;;7.22;5.85;;;;;;;9.95;45.22;100383.06;2134428;82;21024;-84
2021/10/09 15:35:51;;;;;;;7.53;4.92;;;;;;;9.86;45.53;100385.18;2134383;83;21054;-83
2021/10/09 15:38:52;;;;;;;7.87;5.78;;;;;;;9.77;45.82;100385.16;2134164;83;20997;-82
2021/10/09 15:41:53;;;;;;;9.00;6.00;;;;;;;9.66;46.27;100381.70;2134366;83;20989;-85
2021/10/09 15:44:58;;;;;;;6.78;4.87;;;;;;;9.57;46.48;100379.05;2134541;83;21164;-89
2021/10/09 15:47:59;;;;;;;6.00;4.83;;;;;;;9.46;47.00;100381.28;2134717;82;21041;-90
2021/10/09 15:51:00;;;;;;;7.80;5.40;;;;;;;9.37;47.31;100383.37;2134319;82;21011;-83
2021/10/09 15:54:04;;;;;;;5.87;5.03;;;;;;;9.27;47.62;100385.13;2134632;82;21543;-90
2021/10/09 15:57:05;;;;;;;9.03;5.58;;;;;;;9.16;47.96;100393.05;2134921;83;21560;-84
2021/10/09 16:00:06;;;;;;;8.78;5.95;;;;;;;9.04;48.41;100393.59;2134113;82;20990;-87
2021/10/09 16:03:09;;;;;;;9.98;6.75;;;;;;;8.94;48.83;100393.53;2134293;82;21076;-89
2021/10/09 16:06:09;;;;;;;11.73;8.10;;;;;;;8.82;49.28;100398.00;2141033;82;21548;-86
2021/10/09 16:09:10;;;;;;;31.15;16.40;;;;;;;8.71;49.37;100395.94;2150468;82;21033;-88
2021/10/09 16:12:13;;;;;;;52.78;27.02;;;;;;;8.59;49.74;100397.75;2022834;88;21081;-86
2021/10/09 16:15:14;;;;;;;61.75;30.80;;;;;;;8.48;50.10;100397.81;2023515;88;21066;-88
2021/10/09 16:18:14;;;;;;;62.75;34.38;;;;;;;8.37;50.70;100403.08;2023748;88;21113;-88
2021/10/09 16:21:17;;;;;;;44.55;24.85;;;;;;;8.24;50.94;100405.36;2023442;87;21220;-90
2021/10/09 16:24:21;;;;;;;36.50;17.62;;;;;;;8.13;51.29;100405.36;2023904;88;21070;-95
2021/10/09 16:27:20;;;;;;;24.23;12.98;;;;;;;8.02;51.36;100404.57;2023593;88;21179;-89
2021/10/09 16:30:21;;;;;;;18.92;10.80;;;;;;;7.91;51.69;100403.64;2023653;88;21140;-89
2021/10/09 16:33:22;;;;;;;13.93;8.45;;;;;;;7.80;51.90;100404.97;2024395;88;21182;-89
2021/10/09 16:36:23;;;;;;;10.85;6.97;;;;;;;7.69;52.21;100412.34;2024006;88;21069;-89
2021/10/09 16:39:24;;;;;;;10.23;6.30;;;;;;;7.56;52.44;100409.01;2024084;88;21597;-87
2021/10/09 16:42:25;;;;;;;6.95;5.40;;;;;;;7.45;52.59;100407.72;2024126;88;21062;-89
2021/10/09 16:45:25;;;;;;;8.23;5.47;;;;;;;7.33;53.08;100416.48;2023720;88;21522;-87
2021/10/09 16:48:26;;;;;;;8.83;5.47;;;;;;;7.21;53.38;100418.22;2023767;88;21131;-87
2021/10/09 16:51:27;;;;;;;10.58;5.92;;;;;;;7.13;54.08;100414.06;2023574;88;21057;-87